Time;durP1;ratioP1;P1;durP2;ratioP2;P2;SDS_P1;SDS_P2;PMS_P1;PMS_P2;Temp;Humidity;BMP_temperature;BMP_pressure;BME280_temperature;BME280_humidity;BME280_pressure;Samples;Min_cycle;Max_cycle;Signal;HPM_P1;HPM_P2
2023/03/21 00:02:10;;;;;;;0.60;0.60;;;11.20;74.80;;;11.16;62.35;95019.16;5098324;28;20569;-24
2023/03/21 00:04:37;;;;;;;0.60;0.60;;;11.30;74.80;;;11.21;62.20;95023.84;5098123;28;20197;-25
2023/03/21 00:07:18;;;;;;;0.50;0.50;;;11.30;74.70;;;11.20;62.04;95011.72;5097800;28;20613;-25
2023/03/21 00:09:45;;;;;;;0.60;0.60;;;11.40;74.70;;;11.23;62.22;95013.13;5097715;28;20193;-25
2023/03/21 00:12:13;;;;;;;0.60;0.60;;;11.40;74.60;;;11.23;62.14;95018.38;5097680;28;20178;-24
2023/03/21 00:14:40;;;;;;;0.60;0.60;;;11.40;74.60;;;11.23;62.23;95019.22;5097729;28;20243;-25
2023/03/21 00:17:09;;;;;;;0.60;0.60;;;11.40;74.60;;;11.26;62.00;95018.81;5097652;28;20258;-25
2023/03/21 00:19:37;;;;;;;0.60;0.60;;;11.40;74.60;;;11.28;62.09;95006.31;5097651;28;20547;-25
2023/03/21 00:22:04;;;;;;;0.60;0.60;;;11.40;74.40;;;11.29;61.91;95010.56;5097781;28;20510;-25
2023/03/21 00:24:35;;;;;;;0.60;0.60;;;11.50;74.40;;;11.28;62.00;95010.75;5097593;28;20214;-25
2023/03/21 00:27:03;;;;;;;0.60;0.60;;;11.50;74.40;;;11.26;62.24;95012.75;5097696;28;20206;-25
2023/03/21 00:29:50;;;;;;;0.60;0.60;;;11.50;74.60;;;11.27;62.07;95009.94;5096610;28;20610;-25
2023/03/21 00:32:19;;;;;;;0.60;0.60;;;11.40;74.40;;;11.23;62.55;95010.50;5096333;28;20193;-25
2023/03/21 00:34:48;;;;;;;0.52;0.52;;;11.40;74.60;;;11.21;62.47;95002.84;5096339;28;20293;-25
2023/03/21 00:37:32;;;;;;;0.60;0.60;;;11.40;74.70;;;11.13;62.60;95006.44;5096291;28;20202;-25
2023/03/21 00:39:59;;;;;;;0.60;0.60;;;11.40;74.60;;;11.10;62.00;95012.06;5097128;28;20218;-26
2023/03/21 00:42:27;;;;;;;0.60;0.60;;;11.30;74.30;;;11.06;61.89;95008.22;5096080;28;20198;-26
2023/03/21 00:44:54;;;;;;;0.70;0.70;;;11.30;74.30;;;10.99;62.13;95007.34;5079328;28;20193;-25
2023/03/21 00:47:21;;;;;;;0.50;0.50;;;11.20;74.20;;;10.94;61.93;95000.06;5095778;28;20218;-26
2023/03/21 00:49:51;;;;;;;0.50;0.50;;;11.10;74.00;;;10.88;61.72;95003.44;5097162;28;20191;-25
2023/03/21 00:52:18;;;;;;;0.60;0.60;;;11.10;74.00;;;10.82;61.61;95004.22;5113214;28;20202;-25
2023/03/21 00:55:06;;;;;;;0.60;0.60;;;11.00;73.90;;;10.71;62.48;95006.34;5096852;28;20213;-26
2023/03/21 00:57:33;;;;;;;0.70;0.70;;;10.90;74.20;;;10.67;62.32;95009.53;5096843;28;20193;-27
2023/03/21 01:00:09;;;;;;;0.70;0.70;;;10.90;74.30;;;10.56;63.44;95003.81;5095725;28;20274;-25
2023/03/21 01:02:37;;;;;;;0.70;0.70;;;10.80;74.60;;;10.50;63.73;95009.00;5095747;28;20186;-25
2023/03/21 01:05:05;;;;;;;0.70;0.70;;;10.80;75.10;;;10.46;63.51;95008.56;5096650;28;20186;-26
2023/03/21 01:07:32;;;;;;;0.60;0.60;;;10.70;75.00;;;10.45;63.47;95003.50;5096615;28;20189;-25
2023/03/21 01:09:59;;;;;;;0.60;0.60;;;10.60;75.00;;;10.44;63.69;95001.91;5096733;28;20186;-25
2023/03/21 01:12:27;;;;;;;0.70;0.70;;;10.60;75.00;;;10.45;63.61;95006.94;5095682;28;20190;-24
2023/03/21 01:14:55;;;;;;;0.60;0.60;;;10.60;75.00;;;10.47;63.25;95004.91;5096735;28;20225;-25
2023/03/21 01:17:22;;;;;;;0.60;0.60;;;10.60;75.00;;;10.51;63.31;95002.72;5096702;28;20224;-25
2023/03/21 01:19:49;;;;;;;0.60;0.60;;;10.60;75.00;;;10.53;63.09;95004.19;5096208;28;20649;-25
2023/03/21 01:22:19;;;;;;;0.60;0.60;;;10.70;75.00;;;10.55;62.94;94991.69;5096342;28;20213;-25
2023/03/21 01:24:47;;;;;;;0.60;0.60;;;10.60;75.00;;;10.53;63.37;94985.00;5096790;28;20293;-25
2023/03/21 01:27:26;;;;;;;0.60;0.60;;;10.70;75.00;;;10.48;63.83;94977.69;5096869;28;20166;-25
2023/03/21 01:29:53;;;;;;;0.60;0.60;;;10.70;75.00;;;10.48;63.71;94979.53;5096037;28;20660;-25
2023/03/21 01:32:20;;;;;;;0.63;0.63;;;10.70;75.20;;;10.49;63.30;94979.31;5095195;28;20685;-25
2023/03/21 01:34:47;;;;;;;0.60;0.60;;;10.60;75.00;;;10.48;63.35;94975.09;5096096;28;20248;-25
2023/03/21 01:37:16;;;;;;;0.70;0.70;;;10.60;75.00;;;10.46;63.66;94986.75;5112066;28;20645;-25
2023/03/21 01:39:46;;;;;;;0.60;0.60;;;10.60;75.00;;;10.46;63.51;94992.00;5094963;28;20190;-26
2023/03/21 01:42:14;;;;;;;0.77;0.77;;;10.60;75.00;;;10.48;63.46;94988.19;5095935;28;20190;-24
2023/03/21 01:45:00;;;;;;;0.50;0.50;;;10.60;75.00;;;10.50;63.29;94983.56;5094876;28;20210;-25
2023/03/21 01:47:38;;;;;;;0.70;0.70;;;10.60;75.00;;;10.51;63.51;94989.63;5095219;28;20198;-26
2023/03/21 01:50:21;;;;;;;0.60;0.60;;;10.60;75.00;;;10.53;63.19;94982.38;5111740;28;20190;-27
2023/03/21 01:52:56;;;;;;;0.73;0.73;;;10.60;75.00;;;10.52;63.43;94971.09;5079813;28;20198;-25
2023/03/21 01:55:27;;;;;;;0.50;0.50;;;10.70;75.00;;;10.54;63.50;94973.53;5111766;28;20202;-27
2023/03/21 01:58:10;;;;;;;0.60;0.60;;;10.70;75.00;;;10.55;63.13;94959.41;5094163;28;20247;-26
2023/03/21 02:01:01;;;;;;;0.57;0.57;;;10.70;75.00;;;10.57;63.31;94958.22;5081288;28;20214;-26
2023/03/21 02:03:49;;;;;;;0.70;0.70;;;10.80;75.10;;;10.61;63.20;94957.81;5094645;28;20217;-25
2023/03/21 02:07:02;;;;;;;0.60;0.60;;;10.80;75.10;;;10.60;63.24;94950.97;5095695;28;20194;-26
2023/03/21 02:09:41;;;;;;;0.80;0.80;;;10.80;75.10;;;10.60;63.32;94957.03;5095611;28;20255;-24
2023/03/21 02:12:15;;;;;;;0.70;0.70;;;10.80;75.10;;;10.62;63.34;94956.81;5079310;28;20186;-25
2023/03/21 02:14:47;;;;;;;0.60;0.60;;;10.80;75.10;;;10.62;62.95;94959.44;5094453;28;20198;-25
2023/03/21 02:18:16;;;;;;;0.60;0.60;;;10.80;75.10;;;10.60;62.59;94957.03;5079465;28;20194;-27
2023/03/21 02:21:20;;;;;;;0.60;0.60;;;10.80;75.10;;;10.56;62.51;94955.78;5078166;28;20204;-26
2023/03/21 02:24:17;;;;;;;0.60;0.60;;;10.80;75.10;;;10.53;62.66;94953.53;5094560;28;20217;-26
2023/03/21 02:26:53;;;;;;;0.65;0.65;;;10.70;75.00;;;10.53;62.64;94953.53;5111334;28;20241;-25
2023/03/21 02:29:57;;;;;;;0.60;0.60;;;10.70;75.00;;;10.50;62.61;94949.50;5094092;28;20561;-25
2023/03/21 02:32:42;;;;;;;0.50;0.50;;;10.60;75.00;;;10.49;62.76;94950.47;5095188;28;20197;-24
2023/03/21 02:35:40;;;;;;;0.60;0.60;;;10.60;75.00;;;10.46;62.93;94953.50;5094252;28;20189;-26
2023/03/21 02:38:39;;;;;;;0.50;0.50;;;10.60;75.00;;;10.47;62.90;94943.81;5095036;28;20190;-26
2023/03/21 02:41:29;;;;;;;0.60;0.60;;;10.60;75.00;;;10.46;63.23;94944.81;5111063;28;20527;-24
2023/03/21 02:44:18;;;;;;;0.60;0.60;;;10.60;75.00;;;10.41;63.17;94946.19;5094082;28;20213;-24
2023/03/21 02:47:00;;;;;;;0.52;0.52;;;10.60;75.00;;;10.40;62.95;94941.16;5094689;28;20285;-25
2023/03/21 02:49:41;;;;;;;0.63;0.63;;;10.60;75.00;;;10.35;63.25;94948.72;5094225;28;20195;-25
2023/03/21 02:52:19;;;;;;;0.60;0.60;;;10.60;75.00;;;10.31;62.71;94947.50;5094722;28;20240;-26
2023/03/21 02:55:12;;;;;;;0.63;0.63;;;10.50;75.00;;;10.23;62.11;94953.69;5080218;28;20205;-24
2023/03/21 02:57:49;;;;;;;0.60;0.60;;;10.40;74.90;;;10.14;62.11;94952.19;5095300;28;20205;-25
2023/03/21 03:00:20;;;;;;;0.60;0.60;;;10.30;74.70;;;10.04;62.33;94953.28;5077105;28;20217;-25
2023/03/21 03:02:49;;;;;;;0.60;0.60;;;10.30;74.80;;;9.96;62.45;94955.22;5094232;28;20206;-25
2023/03/21 03:05:27;;;;;;;0.60;0.60;;;10.20;74.70;;;9.86;62.52;94951.13;5095193;28;20197;-25
2023/03/21 03:08:31;;;;;;;0.60;0.60;;;10.10;74.60;;;9.78;62.24;94953.84;5110952;28;20281;-24
2023/03/21 03:11:35;;;;;;;0.70;0.70;;;10.00;74.60;;;9.66;62.25;94944.88;5099011;28;20202;-25
2023/03/21 03:14:32;;;;;;;0.70;0.70;;;9.90;75.70;;;9.57;62.45;94947.59;5098200;28;20210;-26
2023/03/21 03:17:30;;;;;;;0.60;0.60;;;9.80;75.60;;;9.47;62.62;94944.44;5098869;28;20563;-25
2023/03/21 03:20:09;;;;;;;0.60;0.60;;;9.70;75.60;;;9.42;63.29;94954.66;5097756;28;20262;-24
2023/03/21 03:23:02;;;;;;;0.60;0.60;;;9.70;75.60;;;9.36;63.38;94948.38;5098692;28;20641;-25
2023/03/21 03:26:11;;;;;;;0.70;0.70;;;9.60;76.10;;;9.33;63.88;94948.72;5098920;28;20214;-25
2023/03/21 03:28:49;;;;;;;0.60;0.60;;;9.50;76.40;;;9.29;65.50;94953.50;5079698;28;20246;-26
2023/03/21 03:31:25;;;;;;;0.65;0.65;;;9.50;77.00;;;9.26;65.67;94950.44;5097472;28;20202;-25
2023/03/21 03:34:06;;;;;;;0.60;0.60;;;9.50;77.30;;;9.23;65.19;94945.59;5081491;28;20201;-26
2023/03/21 03:36:46;;;;;;;0.60;0.60;;;9.40;77.20;;;9.21;65.30;94945.75;5097603;28;20237;-25
2023/03/21 03:39:16;;;;;;;0.50;0.50;;;9.40;77.10;;;9.18;65.02;94951.38;5098305;28;20191;-25
2023/03/21 03:42:09;;;;;;;0.50;0.50;;;9.30;77.80;;;9.09;65.70;94949.81;5097698;28;20191;-24
2023/03/21 03:44:58;;;;;;;0.60;0.60;;;9.30;77.20;;;9.06;65.52;94951.00;5098187;28;20636;-25
2023/03/21 03:47:55;;;;;;;0.60;0.60;;;9.30;77.20;;;9.00;65.26;94951.72;5098425;28;20213;-27
2023/03/21 03:50:36;;;;;;;0.80;0.80;;;9.20;77.10;;;8.92;65.79;94950.03;5097282;28;20259;-25
2023/03/21 03:53:35;;;;;;;0.60;0.60;;;9.10;77.20;;;8.89;65.09;94955.59;5097582;28;20194;-25
2023/03/21 03:56:06;;;;;;;0.60;0.60;;;9.10;77.30;;;8.83;65.45;94956.31;5080587;28;20194;-27
2023/03/21 03:58:36;;;;;;;0.60;0.60;;;9.00;77.30;;;8.80;66.05;94951.44;5081041;28;20195;-25
2023/03/21 04:01:14;;;;;;;0.60;0.60;;;9.00;77.50;;;8.76;65.91;94960.63;5097310;28;20651;-26
2023/03/21 04:03:44;;;;;;;0.60;0.60;;;8.90;77.50;;;8.74;65.45;94954.78;5097450;28;20284;-25
2023/03/21 04:06:18;;;;;;;0.70;0.70;;;8.90;77.50;;;8.70;65.53;94963.97;5098378;28;20198;-26
2023/03/21 04:08:49;;;;;;;0.63;0.63;;;8.90;77.50;;;8.67;65.93;94962.53;5097715;28;20179;-25
2023/03/21 04:11:17;;;;;;;0.70;0.70;;;8.80;77.50;;;8.63;65.74;94962.06;5114282;28;20202;-25
2023/03/21 04:13:48;;;;;;;0.70;0.70;;;8.80;77.50;;;8.58;65.22;94953.97;5113832;28;20199;-26
2023/03/21 04:16:22;;;;;;;0.60;0.60;;;8.80;77.40;;;8.55;65.14;94961.34;5096751;28;20663;-25
2023/03/21 04:18:49;;;;;;;0.60;0.60;;;8.70;77.30;;;8.49;65.08;94960.25;5096929;28;20395;-24
2023/03/21 04:21:18;;;;;;;0.60;0.60;;;8.70;77.20;;;8.41;65.24;94963.72;5079534;28;20198;-25
2023/03/21 04:23:45;;;;;;;0.60;0.60;;;8.60;77.10;;;8.37;65.26;94957.19;5096676;28;20244;-26
2023/03/21 04:26:12;;;;;;;0.55;0.55;;;8.60;77.20;;;8.33;65.33;94961.16;5096544;28;20201;-24
2023/03/21 04:28:51;;;;;;;0.60;0.60;;;8.60;77.30;;;8.27;65.64;94960.06;5096405;28;20320;-25
2023/03/21 04:31:25;;;;;;;0.60;0.60;;;8.50;77.50;;;8.24;65.86;94955.22;5097559;28;20175;-24
2023/03/21 04:34:08;;;;;;;0.70;0.70;;;8.50;77.60;;;8.21;65.93;94962.59;5114309;28;20216;-25
2023/03/21 04:36:37;;;;;;;0.60;0.60;;;8.40;77.70;;;8.20;66.29;94964.38;5113410;28;20217;-25
2023/03/21 04:39:11;;;;;;;0.60;0.60;;;8.40;77.70;;;8.17;66.13;94957.69;5096296;28;20532;-24
2023/03/21 04:41:41;;;;;;;0.80;0.80;;;8.40;77.80;;;8.11;66.34;94955.78;5113260;28;20626;-25
2023/03/21 04:44:10;;;;;;;0.70;0.70;;;8.30;77.80;;;8.11;65.81;94950.56;5096103;28;20257;-25
2023/03/21 04:46:38;;;;;;;0.80;0.80;;;8.30;77.70;;;8.08;66.25;94960.53;5113588;28;20227;-25
2023/03/21 04:49:07;;;;;;;0.70;0.70;;;8.30;77.90;;;8.02;66.67;94959.47;5113090;28;20699;-25
2023/03/21 04:51:36;;;;;;;0.60;0.60;;;8.20;77.90;;;8.01;66.28;94955.22;5113201;28;20281;-27
2023/03/21 04:54:07;;;;;;;0.60;0.60;;;8.20;78.00;;;7.96;66.83;94952.31;5096037;28;20637;-25
2023/03/21 04:56:34;;;;;;;0.70;0.70;;;8.20;78.20;;;7.95;67.01;94959.34;5095927;28;20192;-25
2023/03/21 04:59:11;;;;;;;0.80;0.80;;;8.20;78.30;;;7.92;66.97;94959.69;5097114;28;20545;-24
2023/03/21 05:01:40;;;;;;;0.65;0.65;;;8.20;78.40;;;7.92;66.39;94951.03;5096984;28;20182;-24
2023/03/21 05:04:08;;;;;;;0.80;0.80;;;8.10;78.30;;;7.90;66.60;94950.38;5096976;28;20265;-25
2023/03/21 05:06:38;;;;;;;0.60;0.60;;;8.10;78.40;;;7.87;66.42;94951.53;5095734;28;20213;-25
2023/03/21 05:09:05;;;;;;;0.60;0.60;;;8.10;78.20;;;7.82;66.58;94954.69;5096629;28;20198;-25
2023/03/21 05:11:36;;;;;;;0.60;0.60;;;8.00;78.10;;;7.79;66.41;94959.47;5096385;28;20523;-24
2023/03/21 05:14:06;;;;;;;0.80;0.80;;;8.00;78.10;;;7.75;66.53;94958.16;5112633;28;20191;-28
2023/03/21 05:16:37;;;;;;;0.60;0.60;;;8.00;78.20;;;7.73;66.89;94957.53;5079480;28;20233;-27
2023/03/21 05:19:04;;;;;;;0.60;0.60;;;8.00;78.40;;;7.74;66.83;94951.31;5079042;28;20233;-25
2023/03/21 05:21:40;;;;;;;0.60;0.60;;;7.90;78.40;;;7.74;66.95;94952.13;5095873;28;20205;-25
2023/03/21 05:24:16;;;;;;;0.60;0.60;;;8.00;78.60;;;7.75;66.74;94956.38;5095643;28;20214;-24
2023/03/21 05:26:51;;;;;;;0.70;0.70;;;7.90;78.60;;;7.75;66.75;94956.38;5096276;28;20210;-19
2023/03/21 05:29:21;;;;;;;0.50;0.50;;;7.90;78.60;;;7.75;66.60;94963.38;5096288;28;20291;-19
2023/03/21 05:31:58;;;;;;;0.80;0.80;;;7.90;78.60;;;7.72;66.96;94961.94;5096192;28;20196;-19
2023/03/21 05:34:27;;;;;;;0.70;0.70;;;7.90;78.70;;;7.73;66.91;94954.94;5096935;28;20520;-21
2023/03/21 05:36:55;;;;;;;0.70;0.70;;;7.90;78.70;;;7.74;66.78;94959.97;5112086;28;20195;-19
2023/03/21 05:39:24;;;;;;;0.63;0.63;;;7.90;78.70;;;7.75;67.09;94960.78;5095123;28;20297;-19
2023/03/21 05:42:01;;;;;;;0.70;0.70;;;8.00;78.90;;;7.78;66.72;94957.81;5094986;28;20248;-19
2023/03/21 05:44:29;;;;;;;0.70;0.70;;;7.90;78.90;;;7.79;66.96;94952.44;5111936;28;20691;-20
2023/03/21 05:46:58;;;;;;;0.80;0.80;;;8.00;79.00;;;7.82;67.22;94951.25;5094908;28;20191;-19
2023/03/21 05:49:37;;;;;;;0.60;0.60;;;8.00;79.20;;;7.87;67.20;94956.78;5111925;28;20282;-19
2023/03/21 05:52:08;;;;;;;0.70;0.70;;;8.00;79.30;;;7.93;67.09;94956.06;5095060;28;20185;-20
2023/03/21 05:54:35;;;;;;;0.80;0.80;;;8.10;79.50;;;7.95;68.77;94956.72;5094851;28;20285;-20
2023/03/21 05:57:04;;;;;;;0.60;0.60;;;8.10;79.90;;;8.04;69.08;94954.84;5094856;28;20286;-19
2023/03/21 05:59:49;;;;;;;0.50;0.50;;;8.20;80.30;;;8.17;68.66;94965.53;5094793;28;20202;-19
2023/03/21 06:02:18;;;;;;;0.75;0.75;;;8.30;80.60;;;8.30;69.38;94964.94;5111533;28;20689;-19
2023/03/21 06:04:49;;;;;;;0.60;0.60;;;8.40;81.10;;;8.45;69.63;94964.97;5094615;28;20206;-19
2023/03/21 06:07:20;;;;;;;0.60;0.60;;;8.50;82.20;;;8.61;69.29;94958.81;5111853;28;20203;-19
2023/03/21 06:09:48;;;;;;;0.63;0.63;;;8.70;81.60;;;8.76;69.15;94956.25;5111555;28;20210;-19
2023/03/21 06:12:15;;;;;;;0.70;0.70;;;8.80;82.50;;;8.89;68.88;94963.44;5094645;28;20229;-19
2023/03/21 06:15:01;;;;;;;0.80;0.80;;;9.00;81.70;;;9.06;68.33;94963.28;5095893;28;20197;-20
2023/03/21 06:17:48;;;;;;;0.70;0.70;;;9.10;81.50;;;9.18;67.97;94969.69;5095644;28;20263;-20
2023/03/21 06:20:16;;;;;;;0.60;0.60;;;9.30;81.30;;;9.31;67.45;94958.56;5078554;28;20202;-19
2023/03/21 06:22:48;;;;;;;0.60;0.60;;;9.40;81.00;;;9.43;67.20;94961.53;5111407;28;20198;-19
2023/03/21 06:25:15;;;;;;;0.50;0.50;;;9.50;80.70;;;9.53;66.83;94969.09;5095246;28;20229;-19
2023/03/21 06:27:43;;;;;;;0.60;0.60;;;9.60;80.30;;;9.61;66.32;94958.50;5095243;28;20201;-19
2023/03/21 06:30:10;;;;;;;0.60;0.60;;;9.70;80.20;;;9.68;66.52;94962.00;5094135;28;20288;-19
2023/03/21 06:32:45;;;;;;;0.60;0.60;;;9.80;80.00;;;9.73;66.09;94959.66;5078664;28;20255;-19
2023/03/21 06:35:16;;;;;;;0.60;0.60;;;9.90;79.80;;;9.78;65.70;94952.03;5094294;28;20281;-19
2023/03/21 06:37:44;;;;;;;0.60;0.60;;;9.90;79.50;;;9.83;65.19;94951.50;5077449;28;20297;-19
2023/03/21 06:40:12;;;;;;;0.60;0.60;;;10.00;78.00;;;9.85;65.19;94962.59;5095111;28;20196;-19
2023/03/21 06:42:39;;;;;;;0.60;0.60;;;10.10;77.80;;;9.91;65.18;94963.66;5093998;28;20583;-19
2023/03/21 06:45:10;;;;;;;0.80;0.80;;;10.10;77.60;;;9.92;64.82;94960.84;5093558;28;20218;-19
2023/03/21 06:47:37;;;;;;;0.55;0.55;;;10.10;77.40;;;9.93;64.52;94964.28;5111090;28;20202;-19
2023/03/21 06:50:11;;;;;;;0.57;0.57;;;10.20;77.30;;;9.96;64.53;94963.09;5094117;28;20198;-19
2023/03/21 06:52:41;;;;;;;0.70;0.70;;;10.20;77.20;;;10.02;64.70;94959.72;5093895;28;20206;-19
2023/03/21 06:55:09;;;;;;;0.60;0.60;;;10.20;77.20;;;10.05;64.63;94965.41;5094030;28;20202;-19
2023/03/21 06:57:36;;;;;;;0.60;0.60;;;10.30;77.30;;;10.13;64.41;94966.28;5094236;28;20194;-20
2023/03/21 07:00:05;;;;;;;0.60;0.60;;;10.30;77.20;;;10.21;64.45;94961.72;5094213;28;20205;-19
2023/03/21 07:02:33;;;;;;;0.60;0.60;;;10.40;77.20;;;10.31;64.53;94961.41;5094525;28;20638;-20
2023/03/21 07:05:06;;;;;;;0.70;0.70;;;10.50;77.20;;;10.40;64.40;94962.94;5111051;28;20221;-20
2023/03/21 07:07:33;;;;;;;0.60;0.60;;;10.60;77.20;;;10.51;64.23;94960.78;5093917;28;20221;-19
2023/03/21 07:10:00;;;;;;;0.50;0.50;;;10.70;77.20;;;10.61;64.26;94960.44;5093888;28;20202;-19
2023/03/21 07:12:34;;;;;;;0.60;0.60;;;10.80;77.10;;;10.67;63.40;94962.34;5111209;28;20190;-19
2023/03/21 07:15:15;;;;;;;0.60;0.60;;;11.00;76.90;;;10.77;63.22;94962.78;5093860;28;20646;-19
2023/03/21 07:17:43;;;;;;;0.60;0.60;;;11.00;76.60;;;10.80;62.55;94959.81;5093827;28;20298;-20
2023/03/21 07:20:11;;;;;;;0.50;0.50;;;11.10;76.10;;;10.87;62.28;94955.38;5110792;28;20202;-19
2023/03/21 07:22:38;;;;;;;0.50;0.50;;;11.10;75.80;;;10.96;62.12;94960.47;5094555;28;20201;-19
2023/03/21 07:25:06;;;;;;;0.60;0.60;;;11.20;75.60;;;11.01;61.94;94958.91;5093839;28;20228;-19
2023/03/21 07:27:38;;;;;;;0.70;0.70;;;11.30;75.50;;;11.12;61.66;94965.44;5110776;28;20204;-20
2023/03/21 07:30:09;;;;;;;0.60;0.60;;;11.40;75.60;;;11.21;61.67;94964.25;5110710;28;20234;-19
2023/03/21 07:32:37;;;;;;;0.52;0.52;;;11.50;75.60;;;11.30;61.31;94970.19;5094770;28;20592;-20
2023/03/21 07:35:12;;;;;;;0.60;0.60;;;11.50;75.60;;;11.42;61.92;94975.66;5094620;28;20201;-19
2023/03/21 07:37:40;;;;;;;0.60;0.60;;;11.60;75.70;;;11.50;61.21;94966.84;5093689;28;20197;-19
2023/03/21 07:40:11;;;;;;;0.70;0.70;;;11.80;75.30;;;11.60;61.31;94967.25;5093657;28;20190;-20
2023/03/21 07:42:39;;;;;;;0.60;0.60;;;11.80;75.10;;;11.72;60.36;94967.50;5094591;28;20182;-20
2023/03/21 07:45:11;;;;;;;0.50;0.50;;;12.00;75.20;;;11.81;60.07;94976.03;5093511;28;20240;-19
2023/03/21 07:47:38;;;;;;;0.60;0.60;;;12.10;74.90;;;11.90;58.12;94974.84;5093560;28;20230;-19
2023/03/21 07:50:05;;;;;;;0.60;0.60;;;12.20;73.50;;;11.99;58.15;94971.03;5094660;28;20273;-19
2023/03/21 07:52:33;;;;;;;0.60;0.60;;;12.20;73.30;;;12.07;55.68;94969.22;5094640;28;20188;-19
2023/03/21 07:55:00;;;;;;;0.60;0.60;;;12.30;71.80;;;12.09;56.17;94969.84;5095286;28;20493;-19
2023/03/21 07:57:27;;;;;;;0.60;0.60;;;12.30;71.80;;;12.17;55.88;94969.69;5097841;28;20285;-19
2023/03/21 07:59:54;;;;;;;0.50;0.50;;;12.30;71.80;;;12.22;54.57;94967.25;5098006;28;20190;-20
2023/03/21 08:02:22;;;;;;;0.70;0.70;;;12.40;71.10;;;12.28;54.36;94962.97;5097799;28;20663;-19
2023/03/21 08:04:49;;;;;;;0.70;0.70;;;12.40;71.00;;;12.33;53.31;94964.00;5097791;28;20549;-20
2023/03/21 08:07:16;;;;;;;0.52;0.52;;;12.40;69.90;;;12.40;53.08;94969.28;5097905;28;20186;-20
2023/03/21 08:09:43;;;;;;;0.60;0.60;;;12.60;70.00;;;12.42;52.35;94959.34;5098086;28;20186;-19
2023/03/21 08:12:10;;;;;;;0.50;0.50;;;12.60;69.00;;;12.41;54.12;94962.19;5097013;28;20272;-21
2023/03/21 08:14:38;;;;;;;0.60;0.60;;;12.60;70.10;;;12.44;52.36;94962.59;5097712;28;20198;-19
2023/03/21 08:17:05;;;;;;;0.60;0.60;;;12.60;69.30;;;12.46;53.14;94962.41;5097678;28;20633;-19
2023/03/21 08:19:32;;;;;;;0.80;0.80;;;12.70;69.40;;;12.52;51.60;94958.16;5097851;28;20191;-19
2023/03/21 08:22:00;;;;;;;0.50;0.50;;;12.70;68.70;;;12.54;52.32;94950.88;5086569;28;20236;-19
2023/03/21 08:24:28;;;;;;;0.50;0.50;;;12.70;68.80;;;12.60;51.32;94956.13;5093811;28;20629;-19
2023/03/21 08:26:56;;;;;;;0.60;0.60;;;12.70;68.20;;;12.65;52.92;94952.88;5097501;28;20259;-19
2023/03/21 08:29:24;;;;;;;0.60;0.60;;;12.80;69.00;;;12.69;51.92;94961.97;5079423;28;20328;-19
2023/03/21 08:31:50;;;;;;;0.55;0.55;;;12.80;68.50;;;12.72;51.64;94958.13;5085646;28;20194;-19
2023/03/21 08:34:18;;;;;;;0.50;0.50;;;12.90;68.40;;;12.80;52.31;94957.94;5097345;28;20196;-19
2023/03/21 08:36:45;;;;;;;0.52;0.52;;;12.90;68.80;;;12.89;52.76;94961.16;5097540;28;20542;-19
2023/03/21 08:39:13;;;;;;;0.60;0.60;;;13.00;69.10;;;13.04;52.53;94956.47;5090454;28;20269;-20
2023/03/21 08:41:39;;;;;;;0.60;0.60;;;13.10;68.90;;;13.20;52.16;94962.31;5093064;28;20645;-19
2023/03/21 08:44:07;;;;;;;0.60;0.60;;;13.30;68.70;;;13.33;51.65;94956.19;5076835;28;20256;-20
2023/03/21 08:46:35;;;;;;;0.70;0.70;;;13.40;68.50;;;13.49;50.66;94955.78;5077066;28;20210;-19
2023/03/21 08:49:02;;;;;;;0.57;0.57;;;13.50;68.10;;;13.64;51.03;94957.34;5092856;28;20204;-20
2023/03/21 08:51:30;;;;;;;0.50;0.50;;;13.60;68.30;;;13.82;50.10;94952.19;5096980;28;20190;-20
2023/03/21 08:53:58;;;;;;;0.60;0.60;;;13.80;67.80;;;13.96;50.95;94955.53;5097108;28;20193;-19
2023/03/21 08:56:25;;;;;;;0.50;0.50;;;14.00;68.10;;;14.11;50.69;94959.72;5096914;28;20259;-20
2023/03/21 08:58:52;;;;;;;0.60;0.60;;;14.10;67.70;;;14.23;48.08;94958.84;5082006;28;20286;-20
2023/03/21 09:01:19;;;;;;;0.60;0.60;;;14.30;66.40;;;14.33;49.65;94946.97;5076845;28;20195;-19
2023/03/21 09:03:46;;;;;;;0.60;0.60;;;14.40;66.90;;;14.45;48.66;94944.47;5076980;28;20190;-20
2023/03/21 09:06:13;;;;;;;0.50;0.50;;;14.50;66.20;;;14.54;48.11;94953.75;5076036;28;20215;-19
2023/03/21 09:08:41;;;;;;;0.70;0.70;;;14.60;66.00;;;14.56;47.40;94946.41;5076637;28;20191;-19
2023/03/21 09:11:09;;;;;;;0.60;0.60;;;14.80;66.30;;;14.61;47.91;94946.59;5076442;28;20186;-19
2023/03/21 09:13:36;;;;;;;0.47;0.47;;;14.80;65.30;;;14.65;47.59;94952.25;5076787;28;20676;-19
2023/03/21 09:16:03;;;;;;;0.45;0.45;;;14.80;65.40;;;14.73;48.72;94950.16;5084854;28;20197;-20
2023/03/21 09:18:48;;;;;;;0.50;0.50;;;14.90;66.10;;;14.79;46.74;94945.03;5085348;28;20203;-19
2023/03/21 09:21:17;;;;;;;0.50;0.50;;;15.00;64.70;;;14.79;45.55;94955.59;5081220;28;20204;-19
2023/03/21 09:23:45;;;;;;;0.50;0.50;;;15.00;63.80;;;14.78;44.96;94956.59;5082711;28;20268;-20
2023/03/21 09:26:12;;;;;;;0.70;0.70;;;15.00;63.40;;;14.77;45.18;94947.06;5083176;28;20236;-19
2023/03/21 09:28:40;;;;;;;0.50;0.50;;;15.10;63.50;;;14.76;45.45;94946.28;5096364;28;20260;-19
2023/03/21 09:31:11;;;;;;;0.40;0.40;;;15.00;63.60;;;14.78;45.48;94940.75;5088064;28;20202;-20
2023/03/21 09:33:40;;;;;;;0.50;0.50;;;15.10;63.60;;;14.84;45.54;94943.34;5082612;28;20195;-19
2023/03/21 09:36:12;;;;;;;0.50;0.50;;;15.10;63.40;;;14.88;44.09;94957.72;5095485;28;20220;-19
2023/03/21 09:38:41;;;;;;;0.50;0.50;;;15.20;62.60;;;14.91;44.72;94947.78;5076721;28;20233;-20
2023/03/21 09:41:35;;;;;;;0.40;0.40;;;15.20;63.70;;;14.96;45.37;94942.63;5076068;28;20268;-19
2023/03/21 09:44:27;;;;;;;0.55;0.55;;;15.20;63.90;;;15.05;45.55;94933.41;5081128;28;20202;-20
2023/03/21 09:47:23;;;;;;;0.52;0.52;;;15.40;63.30;;;15.07;45.70;94936.63;5088499;28;20226;-19
2023/03/21 09:50:19;;;;;;;0.60;0.60;;;15.40;63.40;;;15.13;46.15;94919.88;5074818;28;20175;-20
2023/03/21 09:52:58;;;;;;;0.50;0.50;;;15.40;64.80;;;15.21;45.72;94943.38;5078217;28;20200;-19
2023/03/21 09:55:35;;;;;;;0.32;0.32;;;15.50;63.50;;;15.21;44.31;94937.31;5096099;28;20186;-21
2023/03/21 09:58:43;;;;;;;0.50;0.50;;;15.50;62.00;;;15.20;43.97;94941.75;5079498;28;20645;-20
2023/03/21 10:01:27;;;;;;;0.50;0.50;;;15.50;62.90;;;15.16;43.55;94931.84;5075717;28;20198;-21
2023/03/21 10:03:56;;;;;;;0.50;0.50;;;15.50;61.70;;;15.16;43.78;94937.97;5075643;28;20179;-23
2023/03/21 10:06:28;;;;;;;0.50;0.50;;;15.40;61.80;;;15.21;42.65;94919.59;5075264;28;20276;-20
2023/03/21 10:09:06;;;;;;;0.45;0.45;;;15.40;61.20;;;15.30;44.05;94922.75;5075874;28;20236;-19
2023/03/21 10:11:47;;;;;;;0.50;0.50;;;15.50;62.00;;;15.32;42.47;94918.06;5074623;28;20210;-21
2023/03/21 10:14:27;;;;;;;0.40;0.40;;;15.50;61.90;;;15.43;41.63;94899.84;5074276;28;20202;-19
2023/03/21 10:17:15;;;;;;;0.50;0.50;;;15.60;60.40;;;15.40;41.70;94914.31;5093234;28;20206;-20
2023/03/21 10:19:45;;;;;;;0.50;0.50;;;15.70;60.10;;;15.32;40.99;94914.63;5094916;28;20182;-19
2023/03/21 10:22:12;;;;;;;0.50;0.50;;;15.70;60.10;;;15.31;41.69;94911.16;5095670;28;20290;-20
2023/03/21 10:24:39;;;;;;;0.50;0.50;;;15.60;60.00;;;15.32;41.47;94906.69;5094253;28;20244;-19
2023/03/21 10:27:06;;;;;;;0.60;0.60;;;15.60;60.00;;;15.34;42.74;94901.97;5079925;28;20229;-20
2023/03/21 10:29:42;;;;;;;0.60;0.60;;;15.60;60.60;;;15.31;42.69;94887.38;5074962;28;20227;-20
2023/03/21 10:32:14;;;;;;;0.55;0.55;;;15.60;60.70;;;15.36;42.39;94890.16;5075058;28;20179;-20
2023/03/21 10:34:54;;;;;;;0.70;0.70;;;15.60;60.00;;;15.45;41.19;94893.31;5079685;28;20195;-20
2023/03/21 10:37:23;;;;;;;0.50;0.50;;;15.60;60.00;;;15.49;42.57;94888.38;5075000;28;20187;-20
2023/03/21 10:39:53;;;;;;;0.60;0.60;;;15.70;60.60;;;15.56;41.19;94898.88;5079839;28;20201;-26
2023/03/21 10:42:31;;;;;;;0.50;0.50;;;15.70;60.10;;;15.55;41.59;94891.97;5094759;28;20203;-20
2023/03/21 10:44:58;;;;;;;0.40;0.40;;;15.70;60.10;;;15.59;42.68;94893.16;5095169;28;20182;-20
2023/03/21 10:47:34;;;;;;;0.60;0.60;;;15.70;60.50;;;15.62;43.03;94887.41;5095602;28;20194;-20
2023/03/21 10:50:07;;;;;;;0.50;0.50;;;15.80;60.90;;;15.71;41.78;94901.94;5080557;28;20637;-20
2023/03/21 10:52:45;;;;;;;0.40;0.40;;;15.80;60.20;;;15.79;41.93;94888.38;5074057;28;20217;-20